Time;durP1;ratioP1;P1;durP2;ratioP2;P2;SDS_P1;SDS_P2;PMS_P1;PMS_P2;Temp;Humidity;BMP_temperature;BMP_pressure;BME280_temperature;BME280_humidity;BME280_pressure;Samples;Min_cycle;Max_cycle;Signal;HPM_P1;HPM_P2
2022/10/12 00:00:48;;;;;;;12.05;9.63;;;;;;;21.76;48.39;95402.03;5035522;28;20076;-67
2022/10/12 00:03:14;;;;;;;12.50;10.30;;;;;;;21.66;48.30;95392.63;5023537;28;20037;-69
2022/10/12 00:05:39;;;;;;;12.80;10.05;;;;;;;21.82;48.34;95435.44;5023558;28;20092;-67
2022/10/12 00:08:05;;;;;;;11.40;9.70;;;;;;;22.06;48.19;95448.13;5035254;28;20030;-67
2022/10/12 00:10:30;;;;;;;12.27;10.00;;;;;;;21.69;48.31;95397.09;5031658;28;20086;-68
2022/10/12 00:12:56;;;;;;;13.73;9.80;;;;;;;21.59;48.02;95382.22;5039220;28;20049;-67
2022/10/12 00:15:21;;;;;;;11.93;9.73;;;;;;;22.43;48.51;95503.91;5036961;28;20045;-69
2022/10/12 00:17:46;;;;;;;11.85;10.00;;;;;;;22.09;48.41;95447.16;5039057;28;20040;-66
2022/10/12 00:20:12;;;;;;;12.43;9.98;;;;;;;21.60;48.08;95389.88;5034841;28;20013;-67
2022/10/12 00:22:37;;;;;;;14.85;10.65;;;;;;;21.98;48.47;95436.22;5038643;28;20052;-68
2022/10/12 00:25:03;;;;;;;11.63;9.88;;;;;;;21.74;48.19;95388.22;5026982;28;20516;-67
2022/10/12 00:27:29;;;;;;;12.75;10.60;;;;;;;21.45;48.31;95350.53;5056728;28;20041;-67
2022/10/12 00:29:54;;;;;;;12.43;9.82;;;;;;;21.66;48.20;95387.19;5026898;28;20020;-67
2022/10/12 00:32:19;;;;;;;11.55;10.35;;;;;;;21.70;48.20;95388.44;5035703;28;20484;-67
2022/10/12 00:34:45;;;;;;;12.35;10.27;;;;;;;21.84;48.37;95413.94;5055867;28;20419;-68
2022/10/12 00:37:10;;;;;;;11.25;9.60;;;;;;;22.36;48.84;95498.22;5037289;28;20062;-67
2022/10/12 00:39:36;;;;;;;13.40;10.48;;;;;;;22.44;48.35;95499.22;5031969;28;20045;-67
2022/10/12 00:42:01;;;;;;;13.15;10.65;;;;;;;21.97;48.39;95432.03;5035392;28;20116;-67
2022/10/12 00:44:33;;;;;;;13.30;10.60;;;;;;;22.43;48.68;95497.72;5034212;28;20353;-67
2022/10/12 00:46:59;;;;;;;12.35;10.85;;;;;;;22.44;48.49;95496.50;5031791;28;20048;-67
2022/10/12 00:49:24;;;;;;;13.90;10.40;;;;;;;21.67;48.33;95388.66;5024831;28;20775;-68
2022/10/12 00:51:55;;;;;;;14.43;11.07;;;;;;;22.33;48.81;95482.88;5046292;28;20555;-68
2022/10/12 00:54:26;;;;;;;13.00;11.13;;;;;;;22.18;48.63;95454.34;5033953;28;20094;-67
2022/10/12 00:56:52;;;;;;;14.38;10.98;;;;;;;22.39;48.66;95483.63;5041458;28;20478;-67
2022/10/12 00:59:19;;;;;;;13.70;10.77;;;;;;;21.91;48.59;95427.78;5033243;28;20032;-69
2022/10/12 01:01:45;;;;;;;13.80;11.18;;;;;;;22.41;48.50;95489.31;5043893;28;20048;-67
2022/10/12 01:04:10;;;;;;;14.27;11.48;;;;;;;22.14;48.59;95454.56;5032954;28;20034;-67
2022/10/12 01:06:36;;;;;;;12.85;11.02;;;;;;;21.87;48.66;95410.22;5028821;28;20041;-68
2022/10/12 01:09:01;;;;;;;13.95;10.90;;;;;;;21.78;48.74;95400.34;5033509;28;20593;-67
2022/10/12 01:11:27;;;;;;;14.25;11.18;;;;;;;22.17;48.84;95463.75;5035608;28;20407;-67
2022/10/12 01:13:52;;;;;;;13.40;11.20;;;;;;;21.39;48.70;95347.03;5025307;28;20440;-67
2022/10/12 01:16:19;;;;;;;14.75;10.98;;;;;;;22.40;48.70;95504.13;5034526;28;20040;-68
2022/10/12 01:19:04;;;;;;;14.25;11.30;;;;;;;22.11;48.87;95455.56;5030928;28;20041;-68
2022/10/12 01:21:30;;;;;;;13.90;11.57;;;;;;;22.19;48.44;95470.16;5029421;28;20107;-68
2022/10/12 01:24:17;;;;;;;14.65;11.68;;;;;;;22.39;48.65;95502.69;5030491;28;20017;-68
2022/10/12 01:26:56;;;;;;;14.68;11.10;;;;;;;22.40;49.05;95493.25;5057983;28;20523;-68
2022/10/12 01:29:30;;;;;;;13.88;11.48;;;;;;;22.39;48.70;95491.78;5034295;28;20021;-67
2022/10/12 01:32:15;;;;;;;12.30;10.75;;;;;;;22.39;48.42;95486.34;5027811;28;20117;-67
2022/10/12 01:34:54;;;;;;;15.15;11.00;;;;;;;22.34;48.85;95494.47;5024955;28;20029;-67
2022/10/12 01:37:26;;;;;;;13.38;10.70;;;;;;;22.38;48.90;95495.72;5053139;28;20046;-67
2022/10/12 01:39:53;;;;;;;14.70;11.70;;;;;;;21.81;48.57;95412.19;5025791;28;20033;-67
2022/10/12 01:42:27;;;;;;;14.93;11.85;;;;;;;22.38;48.74;95489.56;5021822;28;20033;-66
2022/10/12 01:45:06;;;;;;;15.68;11.95;;;;;;;22.37;48.90;95488.78;5025569;28;20457;-67
2022/10/12 01:47:32;;;;;;;14.52;12.38;;;;;;;21.70;48.81;95390.41;5040756;28;20407;-65
2022/10/12 01:49:57;;;;;;;14.18;11.60;;;;;;;22.10;48.99;95454.06;5033805;28;20045;-67
2022/10/12 01:52:27;;;;;;;14.45;11.82;;;;;;;22.31;49.08;95485.31;5022919;28;20491;-66
2022/10/12 01:54:55;;;;;;;13.85;11.40;;;;;;;21.82;48.89;95427.28;5024009;28;20065;-68
2022/10/12 01:57:31;;;;;;;14.52;12.48;;;;;;;22.06;48.85;95456.28;5028159;28;20052;-68
2022/10/12 02:00:06;;;;;;;14.07;12.02;;;;;;;22.37;48.73;95499.69;5041768;28;20137;-66
2022/10/12 02:02:44;;;;;;;14.10;11.95;;;;;;;22.24;48.68;95480.38;5064665;28;20131;-67
2022/10/12 02:05:14;;;;;;;16.55;12.43;;;;;;;22.17;48.25;95464.47;5026280;28;20038;-67
2022/10/12 02:07:49;;;;;;;15.73;12.65;;;;;;;21.31;49.04;95345.25;5030048;28;20083;-67
2022/10/12 02:10:27;;;;;;;15.05;12.75;;;;;;;22.25;48.71;95492.72;5048416;28;20426;-67
2022/10/12 02:12:52;;;;;;;15.70;12.50;;;;;;;22.19;48.73;95475.59;5023377;28;20037;-68
2022/10/12 02:15:18;;;;;;;16.42;12.75;;;;;;;22.15;49.03;95475.13;5030456;28;20519;-67
2022/10/12 02:17:45;;;;;;;15.30;12.25;;;;;;;21.51;48.86;95386.63;5046102;28;20028;-66
2022/10/12 02:20:11;;;;;;;16.05;12.73;;;;;;;22.19;48.91;95483.75;5029600;28;20149;-68
2022/10/12 02:22:38;;;;;;;17.02;12.65;;;;;;;22.13;48.89;95502.03;5041079;28;20147;-68
2022/10/12 02:25:05;;;;;;;16.13;12.57;;;;;;;22.12;49.02;95484.25;5023980;28;20072;-67
2022/10/12 02:27:32;;;;;;;15.05;12.57;;;;;;;21.80;48.63;95429.75;5027162;28;20040;-67
2022/10/12 02:29:57;;;;;;;17.45;13.05;;;;;;;21.76;49.00;95435.41;5063644;28;20107;-66
2022/10/12 02:32:37;;;;;;;16.15;12.93;;;;;;;22.35;48.85;95518.47;5028184;28;20489;-67
2022/10/12 02:35:26;;;;;;;14.85;11.85;;;;;;;22.36;49.14;95524.66;5049790;28;20041;-66
2022/10/12 02:37:55;;;;;;;14.85;13.00;;;;;;;22.04;48.88;95477.78;5034661;28;20052;-67
2022/10/12 02:40:32;;;;;;;16.42;13.10;;;;;;;21.79;49.01;95460.88;5022474;28;20095;-67
2022/10/12 02:43:04;;;;;;;16.65;12.70;;;;;;;22.13;49.18;95496.59;5023783;28;20395;-67
2022/10/12 02:45:29;;;;;;;15.55;12.88;;;;;;;22.33;48.93;95510.06;5045291;28;20789;-66
2022/10/12 02:47:54;;;;;;;16.55;13.80;;;;;;;22.32;48.93;95514.03;5022060;28;20056;-68
2022/10/12 02:50:20;;;;;;;15.57;12.68;;;;;;;21.83;48.54;95445.09;5046164;28;20439;-66
2022/10/12 02:52:46;;;;;;;15.63;12.80;;;;;;;21.48;48.75;95387.63;5023720;28;20026;-68
2022/10/12 02:55:11;;;;;;;17.17;13.32;;;;;;;21.23;48.93;95355.84;5055752;28;20445;-67
2022/10/12 02:57:36;;;;;;;15.75;13.77;;;;;;;21.40;48.92;95378.38;5036132;28;20033;-67
2022/10/12 03:00:03;;;;;;;16.27;13.35;;;;;;;21.56;48.96;95404.94;5030280;28;20909;-66
2022/10/12 03:02:28;;;;;;;15.77;13.65;;;;;;;22.10;48.93;95486.69;5031098;28;20036;-66
2022/10/12 03:04:53;;;;;;;16.83;14.15;;;;;;;22.34;49.88;95516.97;5027790;28;20032;-67
2022/10/12 03:07:19;;;;;;;16.10;13.68;;;;;;;20.38;48.66;95293.13;5038753;28;20038;-65
2022/10/12 03:09:44;;;;;;;16.85;13.70;;;;;;;21.57;49.12;95406.44;5036024;28;20122;-65
2022/10/12 03:12:10;;;;;;;16.60;13.68;;;;;;;22.32;48.97;95514.03;5031367;28;20534;-67
2022/10/12 03:14:36;;;;;;;16.70;13.40;;;;;;;22.32;48.87;95508.56;5024534;28;20029;-66
2022/10/12 03:17:02;;;;;;;16.42;13.43;;;;;;;22.26;49.09;95501.63;5023172;28;20116;-67
2022/10/12 03:19:28;;;;;;;16.83;13.13;;;;;;;22.31;48.68;95522.69;5023558;28;20071;-67
2022/10/12 03:21:53;;;;;;;17.05;13.40;;;;;;;21.62;49.01;95411.13;5039533;28;20044;-69
2022/10/12 03:24:19;;;;;;;16.98;13.20;;;;;;;22.29;49.16;95498.69;5028540;28;20049;-69
2022/10/12 03:26:44;;;;;;;17.23;13.75;;;;;;;21.56;49.09;95402.22;5044392;28;20040;-68
2022/10/12 03:29:10;;;;;;;17.77;14.40;;;;;;;22.32;49.00;95513.28;5023951;28;20025;-66
2022/10/12 03:31:35;;;;;;;16.95;13.88;;;;;;;21.56;48.74;95402.22;5034255;28;20041;-67
2022/10/12 03:34:01;;;;;;;17.55;13.63;;;;;;;22.07;49.10;95486.94;5023510;28;20045;-66
2022/10/12 03:36:26;;;;;;;16.67;13.63;;;;;;;21.73;49.29;95430.19;5022843;28;20041;-66
2022/10/12 03:38:52;;;;;;;17.77;13.52;;;;;;;22.29;49.23;95514.28;5024658;28;20039;-67
2022/10/12 03:41:17;;;;;;;16.60;13.80;;;;;;;21.58;48.99;95424.97;5045978;28;20051;-65
2022/10/12 03:43:42;;;;;;;17.15;14.32;;;;;;;22.05;48.97;95478.53;5026934;28;20041;-67
2022/10/12 03:46:08;;;;;;;17.67;14.15;;;;;;;21.18;48.97;95343.00;5023115;28;20408;-68
2022/10/12 03:48:33;;;;;;;17.08;14.10;;;;;;;22.29;49.40;95509.56;5023252;28;20061;-66
2022/10/12 03:50:59;;;;;;;19.00;14.40;;;;;;;22.29;49.37;95519.72;5023642;28;20610;-68
2022/10/12 03:53:24;;;;;;;17.90;14.10;;;;;;;21.37;49.13;95382.09;5041849;28;20029;-69
2022/10/12 03:55:50;;;;;;;18.48;14.35;;;;;;;21.72;49.15;95434.91;5036564;28;20098;-67
2022/10/12 03:58:16;;;;;;;17.20;13.68;;;;;;;21.67;49.24;95421.28;5040003;28;20040;-67
2022/10/12 04:00:41;;;;;;;18.20;14.65;;;;;;;22.03;49.50;95476.31;5041615;28;20033;-69
2022/10/12 04:03:06;;;;;;;19.15;14.02;;;;;;;21.63;49.23;95418.06;5024683;28;20519;-68
2022/10/12 04:05:32;;;;;;;19.63;15.25;;;;;;;22.30;49.56;95529.34;5029369;28;20052;-69
2022/10/12 04:07:57;;;;;;;18.73;14.48;;;;;;;21.13;49.09;95345.66;5021742;28;20092;-69
2022/10/12 04:10:23;;;;;;;17.92;14.25;;;;;;;22.14;49.33;95498.09;5023633;28;20045;-66
2022/10/12 04:12:48;;;;;;;17.63;14.50;;;;;;;22.27;49.26;95522.91;5032248;28;20415;-66
2022/10/12 04:15:14;;;;;;;17.58;14.43;;;;;;;22.11;49.18;95490.91;5038741;28;20069;-66
2022/10/12 04:17:39;;;;;;;17.42;13.60;;;;;;;22.28;49.33;95518.22;5022737;28;20065;-67
2022/10/12 04:20:05;;;;;;;18.25;14.82;;;;;;;22.28;49.57;95518.94;5023643;28;20029;-66
2022/10/12 04:22:30;;;;;;;17.83;14.57;;;;;;;21.18;49.32;95364.72;5035951;28;20415;-68
2022/10/12 04:24:56;;;;;;;18.50;14.50;;;;;;;22.20;49.37;95523.34;5039243;28;20037;-67
2022/10/12 04:27:21;;;;;;;17.80;14.77;;;;;;;22.20;49.49;95517.91;5022414;28;20136;-67
2022/10/12 04:29:47;;;;;;;20.35;15.18;;;;;;;21.60;49.28;95421.75;5038319;28;20483;-68
2022/10/12 04:32:12;;;;;;;19.60;15.27;;;;;;;21.67;49.55;95437.59;5033491;28;20029;-67
2022/10/12 04:34:38;;;;;;;18.08;15.25;;;;;;;21.57;49.12;95461.50;5033231;28;20045;-67
2022/10/12 04:37:03;;;;;;;17.08;14.07;;;;;;;21.63;49.43;95439.81;5024181;28;20045;-66
2022/10/12 04:39:29;;;;;;;20.00;15.23;;;;;;;21.66;49.16;95452.44;5022706;28;20053;-66
2022/10/12 04:41:54;;;;;;;19.25;15.32;;;;;;;21.99;49.21;95496.81;5032570;28;20036;-70
2022/10/12 04:44:20;;;;;;;19.25;15.52;;;;;;;21.74;49.37;95464.31;5030924;28;20036;-65
2022/10/12 04:46:45;;;;;;;19.63;16.13;;;;;;;21.36;49.66;95412.44;5037078;28;20051;-67
2022/10/12 04:49:11;;;;;;;18.33;14.80;;;;;;;21.47;49.78;95429.59;5031300;28;20040;-67
2022/10/12 04:51:36;;;;;;;18.55;14.93;;;;;;;21.94;49.76;95506.44;5026323;28;20032;-67
2022/10/12 04:54:02;;;;;;;18.27;14.68;;;;;;;22.19;49.63;95543.63;5027265;28;20438;-67
2022/10/12 04:56:27;;;;;;;19.33;15.00;;;;;;;22.05;49.52;95520.06;5035652;28;20358;-68
2022/10/12 04:58:53;;;;;;;18.30;14.95;;;;;;;21.68;49.53;95450.69;5021051;28;20042;-67
2022/10/12 05:01:18;;;;;;;20.40;15.32;;;;;;;21.98;49.73;95503.47;5037132;28;20524;-66
2022/10/12 05:03:44;;;;;;;19.77;15.07;;;;;;;22.42;49.54;95550.69;5044229;28;20482;-66
2022/10/12 05:06:09;;;;;;;18.85;14.77;;;;;;;22.34;49.39;95538.75;5035471;28;20072;-67
2022/10/12 05:08:35;;;;;;;19.02;15.00;;;;;;;22.46;49.27;95556.59;5026392;28;20025;-67
2022/10/12 05:11:00;;;;;;;18.52;14.75;;;;;;;22.50;49.65;95568.75;5025485;28;20101;-66
2022/10/12 05:13:27;;;;;;;20.65;15.57;;;;;;;21.43;49.49;95391.75;5026145;28;20038;-66
2022/10/12 05:15:52;;;;;;;18.13;15.05;;;;;;;21.90;49.48;95455.47;5027664;28;20076;-65
2022/10/12 05:18:18;;;;;;;18.65;15.10;;;;;;;21.99;49.31;95464.91;5025776;28;20386;-66
2022/10/12 05:20:43;;;;;;;18.00;14.75;;;;;;;22.51;49.67;95553.16;5027477;28;20132;-66
2022/10/12 05:23:10;;;;;;;19.17;15.40;;;;;;;22.80;49.35;95560.91;5053898;28;20057;-68
2022/10/12 05:25:35;;;;;;;18.60;14.52;;;;;;;22.65;49.39;95546.78;5034072;28;20509;-68
2022/10/12 05:28:01;;;;;;;17.88;14.40;;;;;;;22.34;49.20;95500.66;5025115;28;20046;-64
2022/10/12 05:30:26;;;;;;;17.67;14.48;;;;;;;22.61;49.12;95525.22;5030816;28;20052;-65
2022/10/12 05:32:52;;;;;;;17.73;14.38;;;;;;;22.72;49.13;95546.28;5034652;28;20029;-66
2022/10/12 05:35:17;;;;;;;18.35;13.90;;;;;;;22.90;49.46;95577.28;5030524;28;20029;-67
2022/10/12 05:37:42;;;;;;;17.77;14.43;;;;;;;22.85;49.17;95560.91;5038352;28;20044;-66
2022/10/12 05:40:08;;;;;;;18.58;15.45;;;;;;;22.67;49.03;95527.97;5024984;28;20049;-65
2022/10/12 05:42:34;;;;;;;17.33;14.48;;;;;;;22.59;48.84;95510.63;5037002;28;20041;-67
2022/10/12 05:45:00;;;;;;;17.98;13.98;;;;;;;22.49;48.89;95493.78;5045883;28;20048;-66
2022/10/12 05:47:25;;;;;;;17.33;14.25;;;;;;;22.95;48.97;95565.66;5046998;28;20021;-66
2022/10/12 05:49:51;;;;;;;18.67;14.50;;;;;;;23.24;49.07;95584.28;5042312;28;20033;-68
2022/10/12 05:52:16;;;;;;;15.77;13.43;;;;;;;23.02;48.54;95543.41;5022134;28;20432;-68
2022/10/12 05:54:42;;;;;;;18.08;14.65;;;;;;;23.09;48.77;95548.38;5039949;28;20397;-67
2022/10/12 05:57:07;;;;;;;18.60;14.15;;;;;;;23.40;47.96;95583.56;5041088;28;20431;-69
2022/10/12 05:59:33;;;;;;;17.88;13.85;;;;;;;23.53;47.84;95592.00;5024867;28;20446;-68
2022/10/12 06:01:58;;;;;;;16.85;13.48;;;;;;;22.91;48.16;95499.78;5029277;28;20037;-66
2022/10/12 06:04:24;;;;;;;17.45;13.60;;;;;;;22.92;47.67;95495.81;5035845;28;20732;-67
2022/10/12 06:06:49;;;;;;;16.25;13.63;;;;;;;23.05;47.93;95504.28;5022927;28;20061;-67
2022/10/12 06:09:15;;;;;;;17.63;13.98;;;;;;;23.68;47.25;95587.78;5025282;28;20045;-65
2022/10/12 06:11:40;;;;;;;16.65;13.98;;;;;;;23.42;47.84;95559.25;5027553;28;20456;-67
2022/10/12 06:14:06;;;;;;;18.23;14.57;;;;;;;23.43;46.98;95563.47;5038607;28;20028;-65
2022/10/12 06:16:31;;;;;;;17.92;13.65;;;;;;;23.74;47.48;95591.25;5033041;28;20102;-67
2022/10/12 06:18:56;;;;;;;16.67;13.70;;;;;;;23.37;47.14;95519.88;5031994;28;20422;-66
2022/10/12 06:21:22;;;;;;;15.93;13.20;;;;;;;23.85;47.10;95595.94;5024004;28;20095;-66
2022/10/12 06:23:47;;;;;;;17.08;13.40;;;;;;;23.26;46.72;95502.78;5037264;28;20032;-64
2022/10/12 06:26:13;;;;;;;15.75;12.85;;;;;;;24.01;46.72;95610.31;5038152;28;20539;-66
2022/10/12 06:28:38;;;;;;;16.58;13.43;;;;;;;23.73;46.96;95591.75;5031253;28;20045;-65
2022/10/12 06:31:04;;;;;;;17.67;13.63;;;;;;;23.86;47.16;95609.81;5022725;28;20041;-65
2022/10/12 06:33:29;;;;;;;17.13;13.48;;;;;;;23.75;46.71;95575.63;5039612;28;20052;-70
2022/10/12 06:35:55;;;;;;;17.55;13.82;;;;;;;23.52;47.48;95574.88;5041760;28;20040;-65
2022/10/12 06:38:20;;;;;;;16.83;14.07;;;;;;;23.75;46.85;95586.53;5041596;28;20132;-65
2022/10/12 06:40:46;;;;;;;17.75;14.15;;;;;;;23.72;47.07;95606.63;5042792;28;20079;-67
2022/10/12 06:43:11;;;;;;;16.23;13.25;;;;;;;23.65;47.57;95604.41;5042068;28;20029;-64
2022/10/12 06:45:37;;;;;;;16.85;13.98;;;;;;;22.20;46.96;95425.41;5031733;28;20766;-64
2022/10/12 06:48:03;;;;;;;16.55;13.60;;;;;;;23.69;47.11;95626.69;5042025;28;20041;-65
2022/10/12 06:50:29;;;;;;;17.40;13.65;;;;;;;23.66;47.48;95633.16;5043383;28;20043;-69
2022/10/12 06:52:54;;;;;;;17.23;13.65;;;;;;;23.59;47.68;95644.53;5042036;28;20040;-70
2022/10/12 06:55:20;;;;;;;16.67;13.73;;;;;;;23.08;47.74;95557.78;5042656;28;20041;-65
2022/10/12 06:57:45;;;;;;;16.35;13.50;;;;;;;22.77;47.65;95524.53;5037616;28;20499;-66
2022/10/12 07:00:12;;;;;;;16.40;13.15;;;;;;;22.65;47.60;95500.50;5036931;28;20041;-66
2022/10/12 07:02:37;;;;;;;18.45;13.43;;;;;;;23.34;47.49;95604.59;5042425;28;20471;-62
2022/10/12 07:05:04;;;;;;;16.80;13.60;;;;;;;23.52;47.56;95636.84;5030288;28;20065;-63
2022/10/12 07:07:33;;;;;;;16.65;13.32;;;;;;;23.46;47.85;95636.09;5037327;28;20079;-67
2022/10/12 07:09:58;;;;;;;16.67;13.85;;;;;;;22.74;47.48;95543.84;5034534;28;20428;-68
2022/10/12 07:12:24;;;;;;;17.30;13.52;;;;;;;23.34;47.71;95640.03;5039354;28;20040;-68
2022/10/12 07:14:49;;;;;;;16.08;12.93;;;;;;;23.21;47.89;95615.22;5039908;28;20025;-68
2022/10/12 07:17:15;;;;;;;15.82;13.52;;;;;;;23.07;48.12;95616.22;5038166;28;20036;-68
2022/10/12 07:19:40;;;;;;;16.88;13.43;;;;;;;23.25;47.84;95626.66;5032998;28;20103;-68
2022/10/12 07:22:05;;;;;;;17.05;14.02;;;;;;;23.33;47.94;95637.81;5029587;28;20430;-66
2022/10/12 07:24:37;;;;;;;16.88;12.80;;;;;;;22.77;47.56;95548.28;5025334;28;20036;-68
2022/10/12 07:27:03;;;;;;;16.45;12.63;;;;;;;22.76;48.14;95568.56;5029043;28;20091;-67
2022/10/12 07:29:30;;;;;;;14.85;12.30;;;;;;;23.16;48.15;95640.50;5019960;28;20500;-69
2022/10/12 07:31:57;;;;;;;15.88;13.38;;;;;;;23.13;47.52;95625.13;5043706;28;20040;-69
2022/10/12 07:34:22;;;;;;;14.43;12.57;;;;;;;22.21;48.17;95486.78;5034710;28;20045;-68
2022/10/12 07:36:48;;;;;;;16.13;12.57;;;;;;;23.12;47.92;95615.50;5035154;28;20041;-66
2022/10/12 07:39:14;;;;;;;17.00;13.05;;;;;;;22.68;48.11;95568.31;5029456;28;20041;-66
2022/10/12 07:41:39;;;;;;;16.73;12.95;;;;;;;23.10;48.02;95631.56;5036284;28;20557;-66
2022/10/12 07:44:05;;;;;;;15.30;12.80;;;;;;;23.13;48.19;95630.59;5036520;28;20111;-67
2022/10/12 07:46:30;;;;;;;16.65;12.98;;;;;;;22.44;48.14;95564.53;5031073;28;20091;-67
2022/10/12 07:48:56;;;;;;;14.73;12.50;;;;;;;23.10;48.32;95639.75;5026795;28;20060;-67
2022/10/12 07:51:22;;;;;;;14.98;12.13;;;;;;;23.18;48.29;95645.47;5041618;28;20043;-68
2022/10/12 07:53:47;;;;;;;15.93;12.40;;;;;;;23.15;48.46;95644.47;5034233;28;20460;-66
2022/10/12 07:56:15;;;;;;;16.25;12.65;;;;;;;23.14;48.48;95648.44;5025745;28;20500;-64
2022/10/12 07:58:42;;;;;;;15.65;12.32;;;;;;;23.00;48.44;95633.06;5022643;28;20045;-65
2022/10/12 08:01:08;;;;;;;15.30;12.73;;;;;;;22.84;48.64;95607.69;5023621;28;20038;-65
2022/10/12 08:03:34;;;;;;;14.90;11.73;;;;;;;22.59;48.26;95570.53;5035604;28;20592;-65
2022/10/12 08:05:59;;;;;;;15.25;12.57;;;;;;;23.06;48.38;95636.53;5040996;28;20037;-65
2022/10/12 08:08:25;;;;;;;15.18;12.30;;;;;;;23.13;48.28;95652.38;5030360;28;20041;-66
2022/10/12 08:10:50;;;;;;;17.08;12.32;;;;;;;22.47;48.47;95550.69;5027660;28;20048;-64
2022/10/12 08:13:16;;;;;;;16.30;12.68;;;;;;;22.33;48.10;95536.53;5029005;28;20094;-65
2022/10/12 08:15:48;;;;;;;15.88;11.98;;;;;;;22.94;47.93;95643.19;5039504;28;20056;-72
2022/10/12 08:18:13;;;;;;;14.60;11.82;;;;;;;22.78;48.81;95615.09;5034094;28;20068;-64
2022/10/12 08:20:38;;;;;;;13.55;11.75;;;;;;;22.86;48.09;95621.59;5022274;28;20035;-68
2022/10/12 08:23:04;;;;;;;14.80;12.68;;;;;;;22.43;48.19;95563.03;5035187;28;20025;-64
2022/10/12 08:25:29;;;;;;;16.25;11.90;;;;;;;22.54;48.22;95576.66;5035857;28;20049;-69
2022/10/12 08:27:55;;;;;;;15.75;12.60;;;;;;;22.27;48.63;95544.69;5035427;28;20053;-69
2022/10/12 08:30:25;;;;;;;15.85;12.43;;;;;;;22.95;48.50;95636.47;5038446;28;20041;-68
2022/10/12 08:32:51;;;;;;;16.85;13.00;;;;;;;22.69;48.58;95612.59;5028454;28;20025;-70
2022/10/12 08:35:16;;;;;;;16.10;12.85;;;;;;;22.26;48.47;95537.75;5029149;28;20032;-69
2022/10/12 08:37:42;;;;;;;15.40;13.10;;;;;;;22.81;48.51;95630.47;5038135;28;20114;-69
2022/10/12 08:40:13;;;;;;;16.02;12.85;;;;;;;22.57;47.96;95578.41;5031158;28;20079;-68
2022/10/12 08:42:38;;;;;;;15.63;12.85;;;;;;;23.00;48.13;95643.94;5038745;28;20040;-71
2022/10/12 08:45:25;;;;;;;15.75;12.23;;;;;;;22.91;48.61;95635.97;5039792;28;20045;-68
2022/10/12 08:48:14;;;;;;;16.33;12.80;;;;;;;22.88;48.10;95631.50;5043600;28;20092;-69
2022/10/12 08:50:48;;;;;;;15.43;12.93;;;;;;;22.72;48.35;95595.28;5034599;28;20342;-68
2022/10/12 08:53:58;;;;;;;16.10;12.32;;;;;;;22.51;48.41;95569.47;5037173;28;20056;-68
2022/10/12 08:56:24;;;;;;;14.15;12.05;;;;;;;22.86;48.12;95621.59;4994809;28;20049;-63
2022/10/12 08:58:50;;;;;;;16.55;12.70;;;;;;;21.98;48.38;95485.16;5034473;28;20080;-64
2022/10/12 09:01:25;;;;;;;15.40;12.25;;;;;;;23.01;48.53;95642.69;5024906;28;20527;-67
2022/10/12 09:03:59;;;;;;;16.48;13.05;;;;;;;23.00;48.25;95633.06;5025644;28;20511;-68
2022/10/12 09:06:32;;;;;;;16.67;12.98;;;;;;;22.46;48.58;95562.06;5033577;28;20080;-68
2022/10/12 09:09:08;;;;;;;18.30;12.95;;;;;;;22.24;48.37;95520.41;5029124;28;20052;-65
2022/10/12 09:11:58;;;;;;;15.70;12.13;;;;;;;22.87;48.73;95620.34;5032849;28;20060;-66
2022/10/12 09:14:31;;;;;;;15.68;12.27;;;;;;;22.15;48.18;95528.75;5007548;28;20523;-65
2022/10/12 09:16:57;;;;;;;13.02;10.90;;;;;;;22.73;48.36;95613.13;5049465;28;20029;-64
2022/10/12 09:19:37;;;;;;;15.70;12.38;;;;;;;22.72;48.59;95589.84;5043440;28;20168;-64
2022/10/12 09:22:03;;;;;;;16.35;12.05;;;;;;;22.77;48.41;95608.94;5023341;28;20034;-64
2022/10/12 09:24:33;;;;;;;15.35;11.82;;;;;;;22.66;48.55;95589.09;5024454;28;20045;-64
2022/10/12 09:26:59;;;;;;;21.20;11.73;;;;;;;22.89;48.51;95615.91;5039629;28;20047;-64
2022/10/12 09:29:30;;;;;;;15.50;11.25;;;;;;;22.78;48.56;95604.22;5037222;28;20064;-65
2022/10/12 09:32:06;;;;;;;23.15;13.85;;;;;;;23.04;48.56;95638.97;5025399;28;20029;-64
2022/10/12 09:34:32;;;;;;;30.42;17.05;;;;;;;22.27;49.69;95525.63;5050053;28;20049;-64
2022/10/12 09:36:57;;;;;;;24.90;15.45;;;;;;;22.32;49.01;95535.78;5040640;28;20118;-64
2022/10/12 09:39:35;;;;;;;31.35;16.55;;;;;;;23.23;48.94;95634.56;5025382;28;20045;-64
2022/10/12 09:42:01;;;;;;;26.60;15.77;;;;;;;23.17;49.17;95620.19;5024201;28;20099;-64
2022/10/12 09:44:38;;;;;;;26.85;15.00;;;;;;;23.42;49.21;95638.31;5025909;28;20022;-65
2022/10/12 09:47:19;;;;;;;23.52;14.27;;;;;;;23.33;48.36;95616.75;5025158;28;20515;-64
2022/10/12 09:49:46;;;;;;;24.40;14.35;;;;;;;23.06;48.25;95554.81;5041802;28;20052;-64
2022/10/12 09:52:12;;;;;;;19.05;13.45;;;;;;;22.92;48.31;95533.94;5026981;28;20036;-65
2022/10/12 09:54:38;;;;;;;18.45;13.23;;;;;;;23.16;47.87;95564.22;5051354;28;20080;-65
2022/10/12 09:57:04;;;;;;;19.90;12.75;;;;;;;23.68;47.78;95625.97;5059487;28;20135;-64
2022/10/12 09:59:33;;;;;;;19.08;13.20;;;;;;;23.85;47.31;95634.13;5032798;28;20049;-64
2022/10/12 10:02:15;;;;;;;18.35;12.68;;;;;;;23.93;47.11;95642.06;5042136;28;20426;-64
2022/10/12 10:04:41;;;;;;;18.95;12.45;;;;;;;24.00;46.85;95630.63;5028202;28;20187;-64
2022/10/12 10:07:24;;;;;;;21.50;12.55;;;;;;;24.02;46.84;95625.44;5028696;28;20132;-64
2022/10/12 10:10:10;;;;;;;18.20;12.10;;;;;;;24.14;46.37;95623.41;5024871;28;20396;-64
2022/10/12 10:13:05;;;;;;;16.40;11.48;;;;;;;24.01;46.57;95615.03;5056833;28;20112;-65
2022/10/12 10:15:34;;;;;;;15.63;10.95;;;;;;;24.21;46.07;95620.91;5035835;28;20053;-65
2022/10/12 10:18:02;;;;;;;18.20;11.52;;;;;;;24.32;45.89;95626.38;5026125;28;20037;-64
2022/10/12 10:20:34;;;;;;;18.30;11.13;;;;;;;24.15;45.77;95614.72;5035174;28;20071;-64
2022/10/12 10:22:59;;;;;;;17.10;11.48;;;;;;;24.19;46.08;95620.69;5067740;28;20091;-63
2022/10/12 10:25:25;;;;;;;14.88;10.75;;;;;;;24.19;46.34;95600.84;5040128;28;20045;-65
2022/10/12 10:28:18;;;;;;;15.85;10.77;;;;;;;23.51;45.64;95510.69;5027745;28;20037;-64
2022/10/12 10:30:44;;;;;;;15.27;10.18;;;;;;;23.71;45.58;95509.69;5022767;28;20124;-64
2022/10/12 10:33:17;;;;;;;16.85;12.05;;;;;;;24.23;45.57;95568.56;5025296;28;20105;-65
2022/10/12 10:36:18;;;;;;;14.48;10.35;;;;;;;23.98;45.19;95513.09;5037652;28;20024;-64
2022/10/12 10:39:04;;;;;;;12.68;10.20;;;;;;;24.50;45.12;95588.34;5029575;28;20021;-64
2022/10/12 10:41:40;;;;;;;15.55;10.40;;;;;;;23.64;45.17;95461.13;5026928;28;20032;-63
2022/10/12 10:44:16;;;;;;;14.48;10.27;;;;;;;24.00;45.44;95526.97;5024143;28;20046;-63
2022/10/12 10:46:41;;;;;;;14.85;10.30;;;;;;;23.91;45.01;95480.84;5035315;28;20048;-64
2022/10/12 10:49:07;;;;;;;12.43;9.40;;;;;;;23.99;44.49;95476.38;5048096;28;20470;-62
2022/10/12 10:51:52;;;;;;;14.68;10.27;;;;;;;24.66;45.16;95603.19;5027248;28;20026;-65
2022/10/12 10:54:21;;;;;;;13.25;9.48;;;;;;;24.81;44.72;95587.22;5033876;28;20036;-64
2022/10/12 10:56:46;;;;;;;13.90;10.60;;;;;;;23.86;44.33;95443.44;5049331;28;20713;-63
2022/10/12 10:59:39;;;;;;;14.30;9.35;;;;;;;24.23;44.27;95490.19;5023153;28;20013;-64
2022/10/12 11:02:40;;;;;;;13.05;9.02;;;;;;;24.80;44.13;95581.03;5061618;28;20053;-63
2022/10/12 11:05:25;;;;;;;13.23;9.43;;;;;;;24.67;44.19;95578.09;5003426;28;20707;-64
2022/10/12 11:07:53;;;;;;;13.25;9.52;;;;;;;23.73;44.08;95464.31;5021952;28;20042;-64
2022/10/12 11:10:31;;;;;;;13.57;9.27;;;;;;;24.41;44.55;95577.00;5052834;28;20128;-68
2022/10/12 11:13:27;;;;;;;14.38;9.23;;;;;;;24.22;44.96;95570.56;5050150;28;20481;-68
2022/10/12 11:15:59;;;;;;;12.23;9.57;;;;;;;24.16;44.47;95578.03;5025141;28;20276;-70
2022/10/12 11:18:33;;;;;;;11.55;9.27;;;;;;;23.86;44.78;95532.72;5032810;28;20041;-69
2022/10/12 11:21:31;;;;;;;12.30;9.13;;;;;;;23.93;44.73;95554.78;5028945;28;20044;-70
2022/10/12 11:24:35;;;;;;;13.10;9.10;;;;;;;24.03;44.79;95568.88;5027992;28;20033;-68